Weather at Montreal / Les Cèdres Airport

Public forecast

Using degrees Celsius for public forecast. Weather courtesy of forecast.io.

Closest aviation weather report (METAR) to Montreal / Les Cèdres Airport

Report is more than 2 hours old.

Closest report is Montreal / Pierre Elliott Trudeau International Airport, 16.0 nm (29.6 km) ENE. Retrieved 2020/10/20 08:14 UTC (3 hours ago):

CYUL 200814Z 02012KT 5SM -RA BR FEW003 OVC008 09/09 A3007 RMK SF2ST6 SLP185

Closest aviation forecast (TAF) to Montreal / Les Cèdres Airport

Closest forecast is Montreal / Pierre Elliott Trudeau International Airport, 16.0 nm (29.6 km) ENE. Retrieved 2020/10/20 09:42 UTC (2 hours ago):

TAF CYUL 200838Z 2009/2106 02010KT 4SM -RA BR BKN006 OVC012 TEMPO 2009/2016 P6SM -RA SCT006 OVC012 BECMG 2012/2014 30010KT FM201600 27012KT P6SM OVC015 FM202000 28012KT P6SM BKN030 BECMG 2101/2103 06010KT RMK NXT FCST BY 201200Z